sensor_id;sensor_type;location;lat;lon;timestamp;temperature;humidity
28725;DHT22;43472;48.980;9.646;2023-04-15T00:01:03;6.60;99.90
28725;DHT22;43472;48.980;9.646;2023-04-15T00:06:06;6.80;99.90
28725;DHT22;43472;48.980;9.646;2023-04-15T00:11:09;6.80;99.90
28725;DHT22;43472;48.980;9.646;2023-04-15T00:16:11;6.60;99.90
28725;DHT22;43472;48.980;9.646;2023-04-15T00:21:13;6.60;99.90
28725;DHT22;43472;48.980;9.646;2023-04-15T00:26:15;6.50;99.90
28725;DHT22;43472;48.980;9.646;2023-04-15T00:31:17;6.60;99.90
28725;DHT22;43472;48.980;9.646;2023-04-15T00:36:19;6.50;99.90
28725;DHT22;43472;48.980;9.646;2023-04-15T00:41:21;6.60;99.90
28725;DHT22;43472;48.980;9.646;2023-04-15T00:46:24;6.60;99.90
28725;DHT22;43472;48.980;9.646;2023-04-15T00:51:27;6.60;99.90
28725;DHT22;43472;48.980;9.646;2023-04-15T00:56:29;6.50;99.90
28725;DHT22;43472;48.980;9.646;2023-04-15T01:01:36;6.40;99.90
28725;DHT22;43472;48.980;9.646;2023-04-15T01:06:39;6.40;99.90
28725;DHT22;43472;48.980;9.646;2023-04-15T01:11:41;6.50;99.90
28725;DHT22;43472;48.980;9.646;2023-04-15T01:16:43;6.30;99.90
28725;DHT22;43472;48.980;9.646;2023-04-15T01:21:46;6.20;99.90
28725;DHT22;43472;48.980;9.646;2023-04-15T01:26:49;6.30;99.90
28725;DHT22;43472;48.980;9.646;2023-04-15T01:31:52;6.20;99.90
28725;DHT22;43472;48.980;9.646;2023-04-15T01:36:54;6.10;99.90
28725;DHT22;43472;48.980;9.646;2023-04-15T01:41:56;6.00;99.90
28725;DHT22;43472;48.980;9.646;2023-04-15T01:47:00;5.90;99.90
28725;DHT22;43472;48.980;9.646;2023-04-15T01:52:02;6.00;99.90
28725;DHT22;43472;48.980;9.646;2023-04-15T01:57:04;5.90;99.90
28725;DHT22;43472;48.980;9.646;2023-04-15T02:02:06;5.90;99.90
28725;DHT22;43472;48.980;9.646;2023-04-15T02:07:08;5.80;99.90
28725;DHT22;43472;48.980;9.646;2023-04-15T02:12:10;5.90;99.90
28725;DHT22;43472;48.980;9.646;2023-04-15T02:17:13;5.80;99.90
28725;DHT22;43472;48.980;9.646;2023-04-15T02:22:15;5.80;99.90
28725;DHT22;43472;48.980;9.646;2023-04-15T02:27:19;5.60;99.90
28725;DHT22;43472;48.980;9.646;2023-04-15T02:32:21;5.60;99.90
28725;DHT22;43472;48.980;9.646;2023-04-15T02:37:25;5.50;99.90
28725;DHT22;43472;48.980;9.646;2023-04-15T02:42:29;5.50;99.90
28725;DHT22;43472;48.980;9.646;2023-04-15T02:47:34;5.50;99.90
28725;DHT22;43472;48.980;9.646;2023-04-15T02:52:38;5.50;99.90
28725;DHT22;43472;48.980;9.646;2023-04-15T02:57:40;5.50;99.90
28725;DHT22;43472;48.980;9.646;2023-04-15T03:02:42;5.60;99.90
28725;DHT22;43472;48.980;9.646;2023-04-15T03:07:44;5.50;99.90
28725;DHT22;43472;48.980;9.646;2023-04-15T03:12:47;5.60;99.90
28725;DHT22;43472;48.980;9.646;2023-04-15T03:17:49;5.60;99.90
28725;DHT22;43472;48.980;9.646;2023-04-15T03:22:51;5.60;99.90
28725;DHT22;43472;48.980;9.646;2023-04-15T03:27:53;5.60;99.90
28725;DHT22;43472;48.980;9.646;2023-04-15T03:32:55;5.50;99.90
28725;DHT22;43472;48.980;9.646;2023-04-15T03:37:58;5.50;99.90
28725;DHT22;43472;48.980;9.646;2023-04-15T03:42:59;5.50;99.90
28725;DHT22;43472;48.980;9.646;2023-04-15T03:48:02;5.50;99.90
28725;DHT22;43472;48.980;9.646;2023-04-15T03:53:17;5.40;99.90
28725;DHT22;43472;48.980;9.646;2023-04-15T03:58:19;5.40;99.90
28725;DHT22;43472;48.980;9.646;2023-04-15T04:03:21;5.40;99.90
28725;DHT22;43472;48.980;9.646;2023-04-15T04:08:23;5.30;99.90
28725;DHT22;43472;48.980;9.646;2023-04-15T04:13:25;5.40;99.90
28725;DHT22;43472;48.980;9.646;2023-04-15T04:18:27;5.30;99.90
28725;DHT22;43472;48.980;9.646;2023-04-15T04:23:29;5.20;99.90
28725;DHT22;43472;48.980;9.646;2023-04-15T04:28:31;5.70;99.90
28725;DHT22;43472;48.980;9.646;2023-04-15T04:33:33;5.20;99.90
28725;DHT22;43472;48.980;9.646;2023-04-15T04:38:35;5.20;99.90
28725;DHT22;43472;48.980;9.646;2023-04-15T04:43:38;5.10;99.90
28725;DHT22;43472;48.980;9.646;2023-04-15T04:48:39;5.10;99.90
28725;DHT22;43472;48.980;9.646;2023-04-15T04:53:41;5.20;99.90
28725;DHT22;43472;48.980;9.646;2023-04-15T04:58:44;5.10;99.90
28725;DHT22;43472;48.980;9.646;2023-04-15T05:03:46;5.00;99.90
28725;DHT22;43472;48.980;9.646;2023-04-15T05:08:48;5.10;99.90
28725;DHT22;43472;48.980;9.646;2023-04-15T05:13:50;5.10;99.90
28725;DHT22;43472;48.980;9.646;2023-04-15T05:18:52;5.20;99.90
28725;DHT22;43472;48.980;9.646;2023-04-15T05:23:54;5.20;99.90
28725;DHT22;43472;48.980;9.646;2023-04-15T05:28:56;5.40;99.90
28725;DHT22;43472;48.980;9.646;2023-04-15T05:33:59;5.50;99.90
28725;DHT22;43472;48.980;9.646;2023-04-15T05:39:01;5.50;99.90
28725;DHT22;43472;48.980;9.646;2023-04-15T05:44:03;5.60;99.90
28725;DHT22;43472;48.980;9.646;2023-04-15T05:49:05;5.60;99.90
28725;DHT22;43472;48.980;9.646;2023-04-15T05:54:07;5.80;99.90
28725;DHT22;43472;48.980;9.646;2023-04-15T05:59:09;5.90;99.90
28725;DHT22;43472;48.980;9.646;2023-04-15T06:04:11;5.90;99.90
28725;DHT22;43472;48.980;9.646;2023-04-15T06:09:13;6.10;99.90
28725;DHT22;43472;48.980;9.646;2023-04-15T06:14:15;6.30;99.90
28725;DHT22;43472;48.980;9.646;2023-04-15T06:19:17;6.30;99.90
28725;DHT22;43472;48.980;9.646;2023-04-15T06:24:19;6.40;99.90
28725;DHT22;43472;48.980;9.646;2023-04-15T06:29:22;6.20;99.90
28725;DHT22;43472;48.980;9.646;2023-04-15T06:44:29;6.40;99.90
28725;DHT22;43472;48.980;9.646;2023-04-15T06:49:34;6.40;99.90
28725;DHT22;43472;48.980;9.646;2023-04-15T06:54:36;6.70;99.90
28725;DHT22;43472;48.980;9.646;2023-04-15T06:59:38;6.80;99.90
28725;DHT22;43472;48.980;9.646;2023-04-15T07:04:40;7.30;99.90
28725;DHT22;43472;48.980;9.646;2023-04-15T07:09:43;7.60;99.90
28725;DHT22;43472;48.980;9.646;2023-04-15T07:14:45;7.90;99.90
28725;DHT22;43472;48.980;9.646;2023-04-15T07:19:47;8.20;99.90
28725;DHT22;43472;48.980;9.646;2023-04-15T07:24:49;8.30;99.90
28725;DHT22;43472;48.980;9.646;2023-04-15T07:29:51;8.60;99.90
28725;DHT22;43472;48.980;9.646;2023-04-15T07:34:52;8.90;99.90
28725;DHT22;43472;48.980;9.646;2023-04-15T07:39:55;8.90;99.90
28725;DHT22;43472;48.980;9.646;2023-04-15T07:44:57;9.10;99.90
28725;DHT22;43472;48.980;9.646;2023-04-15T07:49:59;9.40;99.90
28725;DHT22;43472;48.980;9.646;2023-04-15T07:55:02;9.40;99.90
28725;DHT22;43472;48.980;9.646;2023-04-15T08:00:05;9.80;99.90
28725;DHT22;43472;48.980;9.646;2023-04-15T08:05:09;10.00;99.90
28725;DHT22;43472;48.980;9.646;2023-04-15T08:10:11;10.00;99.90
28725;DHT22;43472;48.980;9.646;2023-04-15T08:15:16;10.40;99.90
28725;DHT22;43472;48.980;9.646;2023-04-15T08:20:19;10.50;99.90
28725;DHT22;43472;48.980;9.646;2023-04-15T08:25:21;11.10;99.90
28725;DHT22;43472;48.980;9.646;2023-04-15T08:30:23;11.50;99.90
28725;DHT22;43472;48.980;9.646;2023-04-15T08:35:26;11.60;99.90
28725;DHT22;43472;48.980;9.646;2023-04-15T08:40:39;12.30;99.90
28725;DHT22;43472;48.980;9.646;2023-04-15T08:45:42;12.20;99.90
28725;DHT22;43472;48.980;9.646;2023-04-15T08:50:46;12.50;99.90
28725;DHT22;43472;48.980;9.646;2023-04-15T08:55:51;12.80;99.90
28725;DHT22;43472;48.980;9.646;2023-04-15T09:00:55;13.00;99.90
28725;DHT22;43472;48.980;9.646;2023-04-15T09:05:57;13.50;99.90
28725;DHT22;43472;48.980;9.646;2023-04-15T09:11:01;13.80;99.90
28725;DHT22;43472;48.980;9.646;2023-04-15T09:16:06;13.70;99.90
28725;DHT22;43472;48.980;9.646;2023-04-15T09:21:14;13.60;99.90
28725;DHT22;43472;48.980;9.646;2023-04-15T09:26:16;13.80;99.90
28725;DHT22;43472;48.980;9.646;2023-04-15T09:31:18;13.70;99.90
28725;DHT22;43472;48.980;9.646;2023-04-15T09:42:05;13.80;99.90
28725;DHT22;43472;48.980;9.646;2023-04-15T09:47:08;15.10;99.90
28725;DHT22;43472;48.980;9.646;2023-04-15T09:52:13;14.10;99.90
28725;DHT22;43472;48.980;9.646;2023-04-15T09:57:14;14.10;99.90
28725;DHT22;43472;48.980;9.646;2023-04-15T10:02:18;13.90;99.90
28725;DHT22;43472;48.980;9.646;2023-04-15T10:07:22;13.80;99.90
28725;DHT22;43472;48.980;9.646;2023-04-15T10:12:25;14.10;99.90
28725;DHT22;43472;48.980;9.646;2023-04-15T10:17:27;14.20;99.90
28725;DHT22;43472;48.980;9.646;2023-04-15T10:22:34;14.20;99.90
28725;DHT22;43472;48.980;9.646;2023-04-15T10:27:39;14.10;99.90
28725;DHT22;43472;48.980;9.646;2023-04-15T10:32:43;13.90;99.90
28725;DHT22;43472;48.980;9.646;2023-04-15T10:37:46;13.80;99.90
28725;DHT22;43472;48.980;9.646;2023-04-15T10:42:48;13.70;99.90
28725;DHT22;43472;48.980;9.646;2023-04-15T10:47:58;13.60;99.90
28725;DHT22;43472;48.980;9.646;2023-04-15T10:53:09;13.60;99.90
28725;DHT22;43472;48.980;9.646;2023-04-15T10:58:11;13.50;99.90
28725;DHT22;43472;48.980;9.646;2023-04-15T11:03:14;13.50;99.90
28725;DHT22;43472;48.980;9.646;2023-04-15T11:08:16;13.20;99.90
28725;DHT22;43472;48.980;9.646;2023-04-15T11:13:20;13.30;99.90
28725;DHT22;43472;48.980;9.646;2023-04-15T11:18:25;13.40;99.90
28725;DHT22;43472;48.980;9.646;2023-04-15T11:23:38;13.70;99.90
28725;DHT22;43472;48.980;9.646;2023-04-15T11:28:50;13.80;99.90
28725;DHT22;43472;48.980;9.646;2023-04-15T11:38:56;13.80;99.90
28725;DHT22;43472;48.980;9.646;2023-04-15T11:44:19;13.50;99.90
28725;DHT22;43472;48.980;9.646;2023-04-15T11:49:31;13.50;99.90
28725;DHT22;43472;48.980;9.646;2023-04-15T11:54:34;13.60;99.90
28725;DHT22;43472;48.980;9.646;2023-04-15T11:59:42;13.60;99.90
28725;DHT22;43472;48.980;9.646;2023-04-15T12:04:46;13.70;99.90
28725;DHT22;43472;48.980;9.646;2023-04-15T12:09:54;13.70;99.90
28725;DHT22;43472;48.980;9.646;2023-04-15T12:14:57;13.60;99.90
28725;DHT22;43472;48.980;9.646;2023-04-15T12:20:00;13.60;99.90
28725;DHT22;43472;48.980;9.646;2023-04-15T12:25:02;13.70;99.90
28725;DHT22;43472;48.980;9.646;2023-04-15T12:30:04;13.80;99.50
28725;DHT22;43472;48.980;9.646;2023-04-15T12:35:07;14.10;99.90
28725;DHT22;43472;48.980;9.646;2023-04-15T12:40:09;13.70;98.20
28725;DHT22;43472;48.980;9.646;2023-04-15T12:45:11;13.40;97.30
28725;DHT22;43472;48.980;9.646;2023-04-15T12:50:13;13.30;97.40
28725;DHT22;43472;48.980;9.646;2023-04-15T12:55:15;13.10;98.30
28725;DHT22;43472;48.980;9.646;2023-04-15T13:00:17;13.10;98.20
28725;DHT22;43472;48.980;9.646;2023-04-15T13:05:19;13.30;97.90
28725;DHT22;43472;48.980;9.646;2023-04-15T13:10:22;13.30;97.50
28725;DHT22;43472;48.980;9.646;2023-04-15T13:15:24;13.00;95.90
28725;DHT22;43472;48.980;9.646;2023-04-15T13:20:26;12.90;96.70
28725;DHT22;43472;48.980;9.646;2023-04-15T13:25:28;12.80;96.60
28725;DHT22;43472;48.980;9.646;2023-04-15T13:30:30;12.70;96.80
28725;DHT22;43472;48.980;9.646;2023-04-15T13:35:33;12.50;95.30
28725;DHT22;43472;48.980;9.646;2023-04-15T13:40:35;12.60;95.70
28725;DHT22;43472;48.980;9.646;2023-04-15T13:45:37;12.40;96.30
28725;DHT22;43472;48.980;9.646;2023-04-15T13:50:39;12.50;97.10
28725;DHT22;43472;48.980;9.646;2023-04-15T13:55:46;12.30;97.50
28725;DHT22;43472;48.980;9.646;2023-04-15T14:00:48;12.40;98.10
28725;DHT22;43472;48.980;9.646;2023-04-15T14:05:50;12.20;98.60
28725;DHT22;43472;48.980;9.646;2023-04-15T14:10:56;12.30;99.30
28725;DHT22;43472;48.980;9.646;2023-04-15T14:15:58;12.20;99.90
28725;DHT22;43472;48.980;9.646;2023-04-15T14:21:00;11.90;99.90
28725;DHT22;43472;48.980;9.646;2023-04-15T14:26:03;11.60;99.90
28725;DHT22;43472;48.980;9.646;2023-04-15T14:31:04;11.70;99.90
28725;DHT22;43472;48.980;9.646;2023-04-15T14:36:09;11.60;99.90
28725;DHT22;43472;48.980;9.646;2023-04-15T14:41:11;11.50;99.90
28725;DHT22;43472;48.980;9.646;2023-04-15T14:46:13;11.70;99.90
28725;DHT22;43472;48.980;9.646;2023-04-15T14:51:15;11.50;99.90
28725;DHT22;43472;48.980;9.646;2023-04-15T14:56:18;11.80;99.90
28725;DHT22;43472;48.980;9.646;2023-04-15T15:01:20;11.50;99.90
28725;DHT22;43472;48.980;9.646;2023-04-15T15:06:22;11.50;99.90
28725;DHT22;43472;48.980;9.646;2023-04-15T15:11:24;11.20;99.90
28725;DHT22;43472;48.980;9.646;2023-04-15T15:16:26;11.10;99.90
28725;DHT22;43472;48.980;9.646;2023-04-15T15:21:28;11.10;99.90
28725;DHT22;43472;48.980;9.646;2023-04-15T15:26:31;11.00;99.90
28725;DHT22;43472;48.980;9.646;2023-04-15T15:31:34;10.90;99.90
28725;DHT22;43472;48.980;9.646;2023-04-15T15:36:37;10.80;99.90
28725;DHT22;43472;48.980;9.646;2023-04-15T15:41:39;10.90;99.90
28725;DHT22;43472;48.980;9.646;2023-04-15T15:46:41;10.40;99.90
28725;DHT22;43472;48.980;9.646;2023-04-15T15:51:44;10.70;99.90
28725;DHT22;43472;48.980;9.646;2023-04-15T15:56:47;10.60;99.90
28725;DHT22;43472;48.980;9.646;2023-04-15T16:01:49;10.60;99.90
28725;DHT22;43472;48.980;9.646;2023-04-15T16:06:52;10.60;99.90
28725;DHT22;43472;48.980;9.646;2023-04-15T16:11:54;10.60;99.90
28725;DHT22;43472;48.980;9.646;2023-04-15T16:16:57;10.60;99.90
28725;DHT22;43472;48.980;9.646;2023-04-15T16:21:59;10.70;99.90
28725;DHT22;43472;48.980;9.646;2023-04-15T16:27:02;10.60;99.90
28725;DHT22;43472;48.980;9.646;2023-04-15T16:32:04;10.30;99.90
28725;DHT22;43472;48.980;9.646;2023-04-15T16:37:07;10.30;99.90
28725;DHT22;43472;48.980;9.646;2023-04-15T16:42:09;10.30;99.90
28725;DHT22;43472;48.980;9.646;2023-04-15T16:47:11;10.30;99.90
28725;DHT22;43472;48.980;9.646;2023-04-15T16:52:13;10.30;99.90
28725;DHT22;43472;48.980;9.646;2023-04-15T16:57:15;10.60;99.90
28725;DHT22;43472;48.980;9.646;2023-04-15T17:02:17;10.30;99.90
28725;DHT22;43472;48.980;9.646;2023-04-15T17:07:19;9.90;99.90
28725;DHT22;43472;48.980;9.646;2023-04-15T17:12:21;9.90;99.90
28725;DHT22;43472;48.980;9.646;2023-04-15T17:17:23;9.90;99.90
28725;DHT22;43472;48.980;9.646;2023-04-15T17:22:25;9.80;99.90
28725;DHT22;43472;48.980;9.646;2023-04-15T17:27:28;9.90;99.90
28725;DHT22;43472;48.980;9.646;2023-04-15T17:32:30;9.90;99.90
28725;DHT22;43472;48.980;9.646;2023-04-15T17:37:35;9.90;99.90
28725;DHT22;43472;48.980;9.646;2023-04-15T17:42:37;9.90;99.90
28725;DHT22;43472;48.980;9.646;2023-04-15T17:47:39;9.90;99.90
28725;DHT22;43472;48.980;9.646;2023-04-15T17:52:42;9.80;99.90
28725;DHT22;43472;48.980;9.646;2023-04-15T17:57:45;9.90;99.90
28725;DHT22;43472;48.980;9.646;2023-04-15T18:02:47;9.90;99.90
28725;DHT22;43472;48.980;9.646;2023-04-15T18:07:50;9.80;99.90
28725;DHT22;43472;48.980;9.646;2023-04-15T18:12:53;9.60;99.90
28725;DHT22;43472;48.980;9.646;2023-04-15T18:17:55;9.80;99.90
28725;DHT22;43472;48.980;9.646;2023-04-15T18:22:57;9.70;99.90
28725;DHT22;43472;48.980;9.646;2023-04-15T18:27:59;9.70;99.90
28725;DHT22;43472;48.980;9.646;2023-04-15T18:33:01;9.60;99.90
28725;DHT22;43472;48.980;9.646;2023-04-15T18:38:03;9.90;99.90
28725;DHT22;43472;48.980;9.646;2023-04-15T18:43:05;9.60;99.90
28725;DHT22;43472;48.980;9.646;2023-04-15T18:48:07;9.60;99.90
28725;DHT22;43472;48.980;9.646;2023-04-15T18:53:09;9.50;99.90
28725;DHT22;43472;48.980;9.646;2023-04-15T18:58:10;9.50;99.90
28725;DHT22;43472;48.980;9.646;2023-04-15T19:03:13;9.60;99.90
28725;DHT22;43472;48.980;9.646;2023-04-15T19:08:15;9.40;99.90
28725;DHT22;43472;48.980;9.646;2023-04-15T19:13:17;9.20;99.90
28725;DHT22;43472;48.980;9.646;2023-04-15T19:18:20;9.30;99.90
28725;DHT22;43472;48.980;9.646;2023-04-15T19:23:23;9.40;99.90
28725;DHT22;43472;48.980;9.646;2023-04-15T19:28:25;9.40;99.90
28725;DHT22;43472;48.980;9.646;2023-04-15T19:33:29;9.30;99.90
28725;DHT22;43472;48.980;9.646;2023-04-15T19:38:33;9.40;99.90
28725;DHT22;43472;48.980;9.646;2023-04-15T19:43:36;9.30;99.90
28725;DHT22;43472;48.980;9.646;2023-04-15T19:48:38;9.40;99.90
28725;DHT22;43472;48.980;9.646;2023-04-15T19:53:40;9.30;99.90
28725;DHT22;43472;48.980;9.646;2023-04-15T19:58:42;9.30;99.90
28725;DHT22;43472;48.980;9.646;2023-04-15T20:03:47;9.30;99.90
28725;DHT22;43472;48.980;9.646;2023-04-15T20:08:50;9.40;99.90
28725;DHT22;43472;48.980;9.646;2023-04-15T20:13:53;9.40;99.90
28725;DHT22;43472;48.980;9.646;2023-04-15T20:18:55;9.40;99.90
28725;DHT22;43472;48.980;9.646;2023-04-15T20:23:57;9.40;99.90
28725;DHT22;43472;48.980;9.646;2023-04-15T20:28:58;9.30;99.90
28725;DHT22;43472;48.980;9.646;2023-04-15T20:34:01;9.50;99.90
28725;DHT22;43472;48.980;9.646;2023-04-15T20:39:03;9.40;99.90
28725;DHT22;43472;48.980;9.646;2023-04-15T20:44:05;9.40;99.90
28725;DHT22;43472;48.980;9.646;2023-04-15T20:49:07;9.40;99.90
28725;DHT22;43472;48.980;9.646;2023-04-15T20:54:09;9.30;99.90
28725;DHT22;43472;48.980;9.646;2023-04-15T20:59:12;9.50;99.90
28725;DHT22;43472;48.980;9.646;2023-04-15T21:04:14;9.40;99.90
28725;DHT22;43472;48.980;9.646;2023-04-15T21:09:15;9.40;99.90
28725;DHT22;43472;48.980;9.646;2023-04-15T21:14:17;9.30;99.90
28725;DHT22;43472;48.980;9.646;2023-04-15T21:19:19;9.40;99.90
28725;DHT22;43472;48.980;9.646;2023-04-15T21:24:21;9.30;99.90
28725;DHT22;43472;48.980;9.646;2023-04-15T21:29:23;9.30;99.90
28725;DHT22;43472;48.980;9.646;2023-04-15T21:34:25;9.20;99.90
28725;DHT22;43472;48.980;9.646;2023-04-15T21:39:27;9.20;99.90
28725;DHT22;43472;48.980;9.646;2023-04-15T21:44:29;9.20;99.90
28725;DHT22;43472;48.980;9.646;2023-04-15T21:49:31;9.30;99.90
28725;DHT22;43472;48.980;9.646;2023-04-15T21:54:33;9.20;99.90
28725;DHT22;43472;48.980;9.646;2023-04-15T21:59:37;9.30;99.90
28725;DHT22;43472;48.980;9.646;2023-04-15T22:04:39;9.20;99.90
28725;DHT22;43472;48.980;9.646;2023-04-15T22:09:41;9.30;99.90
28725;DHT22;43472;48.980;9.646;2023-04-15T22:14:43;9.30;99.90
28725;DHT22;43472;48.980;9.646;2023-04-15T22:19:44;9.20;99.90
28725;DHT22;43472;48.980;9.646;2023-04-15T22:24:47;9.10;99.90
28725;DHT22;43472;48.980;9.646;2023-04-15T22:29:49;9.20;99.90
28725;DHT22;43472;48.980;9.646;2023-04-15T22:34:51;9.10;99.90
28725;DHT22;43472;48.980;9.646;2023-04-15T22:39:52;9.20;99.90
28725;DHT22;43472;48.980;9.646;2023-04-15T22:44:54;9.20;99.90
28725;DHT22;43472;48.980;9.646;2023-04-15T22:49:56;9.20;99.90
28725;DHT22;43472;48.980;9.646;2023-04-15T22:54:59;9.30;99.90
28725;DHT22;43472;48.980;9.646;2023-04-15T23:00:01;9.30;99.90
28725;DHT22;43472;48.980;9.646;2023-04-15T23:05:03;9.30;99.90
28725;DHT22;43472;48.980;9.646;2023-04-15T23:10:13;9.30;99.90
28725;DHT22;43472;48.980;9.646;2023-04-15T23:15:15;9.30;99.90
28725;DHT22;43472;48.980;9.646;2023-04-15T23:20:17;9.40;99.90
28725;DHT22;43472;48.980;9.646;2023-04-15T23:25:19;9.30;99.90
28725;DHT22;43472;48.980;9.646;2023-04-15T23:30:22;9.40;99.90
28725;DHT22;43472;48.980;9.646;2023-04-15T23:35:25;9.40;99.90
28725;DHT22;43472;48.980;9.646;2023-04-15T23:40:27;9.30;99.90
28725;DHT22;43472;48.980;9.646;2023-04-15T23:45:29;9.30;99.90
28725;DHT22;43472;48.980;9.646;2023-04-15T23:50:31;9.40;99.90
28725;DHT22;43472;48.980;9.646;2023-04-15T23:55:33;9.40;99.90
